createdAt,value
2022-08-17T00:00:43.429Z,18.9
2022-08-17T00:02:30.348Z,16.5
2022-08-17T00:04:30.555Z,17.5
2022-08-17T00:06:30.962Z,16.6
2022-08-17T00:08:33.532Z,16.7
2022-08-17T00:10:32.525Z,17.7
2022-08-17T00:12:42.787Z,21.2
2022-08-17T00:14:33.091Z,18.9
2022-08-17T00:16:55.893Z,15.4
2022-08-17T00:18:58.152Z,20.1
2022-08-17T00:20:35.049Z,15.8
2022-08-17T00:22:36.385Z,18.3
2022-08-17T00:24:34.217Z,18.5
2022-08-17T00:26:44.587Z,16
2022-08-17T00:28:35.620Z,18
2022-08-17T00:30:53.100Z,17.8
2022-08-17T00:33:12.121Z,16.3
2022-08-17T00:34:35.954Z,21.2
2022-08-17T00:36:36.305Z,16.6
2022-08-17T00:38:36.839Z,19.1
2022-08-17T00:40:40.685Z,17.7
2022-08-17T00:42:37.862Z,19.2
2022-08-17T00:44:37.752Z,17.7
2022-08-17T00:46:41.495Z,18.2
2022-08-17T00:48:39.530Z,20
2022-08-17T00:50:49.186Z,17.9
2022-08-17T00:52:47.025Z,17.8
2022-08-17T00:54:44.242Z,20.8
2022-08-17T00:56:43.860Z,17.5
2022-08-17T00:58:40.896Z,16.8
2022-08-17T01:00:44.388Z,16
2022-08-17T01:02:43.786Z,19.4
2022-08-17T01:04:43.654Z,22.4
2022-08-17T01:06:43.083Z,19.6
2022-08-17T01:08:42.479Z,20.1
2022-08-17T01:10:57.273Z,15.8
2022-08-17T01:12:42.998Z,20.5
2022-08-17T01:14:43.113Z,19.8
2022-08-17T01:16:43.430Z,21.1
2022-08-17T01:18:47.071Z,21.6
2022-08-17T01:20:48.614Z,20
2022-08-17T01:22:44.495Z,23.6
2022-08-17T01:24:49.720Z,22.5
2022-08-17T01:26:46.523Z,17.7
2022-08-17T01:28:55.110Z,17.4
2022-08-17T01:30:58.580Z,20.1
2022-08-17T01:32:46.415Z,23.3
2022-08-17T01:34:50.600Z,23
2022-08-17T01:36:49.139Z,21.9
2022-08-17T01:38:47.278Z,21.5
2022-08-17T01:40:57.498Z,18.1
2022-08-17T01:42:54.261Z,20.6
2022-08-17T01:44:52.335Z,23.2
2022-08-17T01:46:48.826Z,22.7
2022-08-17T01:48:49.507Z,24.1
2022-08-17T01:50:51.246Z,22.1
2022-08-17T01:52:54.939Z,20.9
2022-08-17T01:54:51.737Z,26.2
2022-08-17T01:56:51.398Z,27.8
2022-08-17T01:58:51.732Z,28.3
2022-08-17T02:01:00.795Z,27.8
2022-08-17T02:02:51.399Z,26.8
2022-08-17T02:04:51.467Z,23.5
2022-08-17T02:06:53.661Z,21.4
2022-08-17T02:09:02.302Z,23.6
2022-08-17T02:10:52.506Z,25.3
2022-08-17T02:12:53.048Z,22
2022-08-17T02:14:53.248Z,24.4
2022-08-17T02:16:53.769Z,23.2
2022-08-17T02:18:53.667Z,23.8
2022-08-17T02:20:54.147Z,20.3
2022-08-17T02:22:55.124Z,20.6
2022-08-17T02:24:59.360Z,25.7
2022-08-17T02:26:55.030Z,27
2022-08-17T02:28:55.340Z,29.1
2022-08-17T02:31:00.970Z,40.2
2022-08-17T02:32:56.134Z,264.1
2022-08-17T02:34:57.040Z,257.9
2022-08-17T02:36:56.635Z,45.3
2022-08-17T02:38:57.080Z,42.5
2022-08-17T02:40:58.302Z,35.6
2022-08-17T02:42:58.349Z,25.9
2022-08-17T02:44:57.983Z,30.7
2022-08-17T02:46:58.385Z,23.4
2022-08-17T02:48:59.176Z,25.4
2022-08-17T02:50:59.576Z,23.5
2022-08-17T02:53:02.416Z,24.5
2022-08-17T02:54:59.789Z,20.7
2022-08-17T02:57:00.049Z,18.4
2022-08-17T02:59:00.391Z,17.7
2022-08-17T03:01:00.713Z,23.7
2022-08-17T03:03:02.987Z,23.3
2022-08-17T03:05:01.356Z,22
2022-08-17T03:07:01.762Z,18.7
2022-08-17T03:09:02.193Z,20.1
2022-08-17T03:11:02.471Z,20
2022-08-17T03:13:02.819Z,22.9
2022-08-17T03:15:05.070Z,20.6
2022-08-17T03:17:03.491Z,24.1
2022-08-17T03:19:03.734Z,24.1
2022-08-17T03:21:04.510Z,23.4
2022-08-17T03:23:04.823Z,25.1
2022-08-17T03:25:10.615Z,21.8
2022-08-17T03:27:05.071Z,23.7
2022-08-17T03:29:05.366Z,21.7
2022-08-17T03:31:06.731Z,24.5
2022-08-17T03:33:08.169Z,25.4
2022-08-17T03:35:07.368Z,26.7
2022-08-17T03:37:07.220Z,29.2
2022-08-17T03:39:07.783Z,23.6
2022-08-17T03:41:07.757Z,29.6
2022-08-17T03:43:08.708Z,27.2
2022-08-17T03:45:15.103Z,26.4
2022-08-17T03:47:08.576Z,27.4
2022-08-17T03:49:09.288Z,26.6
2022-08-17T03:51:15.485Z,25.4
2022-08-17T03:53:15.604Z,24.8
2022-08-17T03:55:10.057Z,23.7
2022-08-17T03:57:11.162Z,24.7
2022-08-17T03:59:21.105Z,25.9
2022-08-17T04:01:11.677Z,30.3
2022-08-17T04:03:12.458Z,28.6
2022-08-17T04:05:12.319Z,30.7
2022-08-17T04:07:12.815Z,31.8
2022-08-17T04:09:13.791Z,29.7
2022-08-17T04:11:13.823Z,29.4
2022-08-17T04:13:14.359Z,26.8
2022-08-17T04:15:16.543Z,34
2022-08-17T04:17:15.667Z,27.4
2022-08-17T04:19:15.909Z,31.7
2022-08-17T04:21:16.808Z,27.8
2022-08-17T04:23:18.368Z,32.5
2022-08-17T04:25:19.675Z,34.5
2022-08-17T04:27:18.130Z,24.2
2022-08-17T04:29:19.065Z,24.8
2022-08-17T04:31:19.509Z,25.4
2022-08-17T04:33:22.147Z,30.6
2022-08-17T04:35:23.280Z,29.8
2022-08-17T04:37:21.038Z,26.2
2022-08-17T04:39:21.585Z,29.1
2022-08-17T04:41:22.336Z,30.9
2022-08-17T04:43:25.722Z,29.2
2022-08-17T04:45:23.334Z,29.2
2022-08-17T04:47:23.854Z,30.9
2022-08-17T04:49:24.527Z,28
2022-08-17T04:51:28.441Z,31.8
2022-08-17T04:53:26.771Z,30.4
2022-08-17T04:55:26.334Z,24.8
2022-08-17T04:57:26.870Z,26.4
2022-08-17T04:59:27.430Z,32.4
2022-08-17T05:01:30.606Z,43.3
2022-08-17T05:03:29.478Z,42
2022-08-17T05:05:31.601Z,23.3
2022-08-17T05:07:31.682Z,20.7
2022-08-17T05:09:30.489Z,44.5
2022-08-17T05:11:31.083Z,72.5
2022-08-17T05:13:31.673Z,58.4
2022-08-17T05:15:36.382Z,64.4
2022-08-17T05:17:33.091Z,87.4
2022-08-17T05:19:33.550Z,117
2022-08-17T05:21:34.066Z,90.3
2022-08-17T05:23:42.864Z,69.7
2022-08-17T05:25:37.999Z,72.3
2022-08-17T05:27:36.047Z,92
2022-08-17T05:29:36.574Z,45
2022-08-17T05:31:37.264Z,47.1
2022-08-17T05:33:44.417Z,23
2022-08-17T05:35:41.402Z,32.5
2022-08-17T05:37:39.309Z,25.5
2022-08-17T05:39:39.939Z,25
2022-08-17T05:41:40.746Z,23.5
2022-08-17T05:43:41.856Z,30.4
2022-08-17T05:45:55.678Z,37.1
2022-08-17T05:47:44.898Z,24.5
2022-08-17T05:49:43.219Z,24.2
2022-08-17T05:52:01.204Z,32.7
2022-08-17T05:53:52.623Z,37.4
2022-08-17T05:55:55.247Z,36
2022-08-17T05:57:58.642Z,34.7
2022-08-17T05:59:58.094Z,36.3
2022-08-17T06:01:55.328Z,47.6
2022-08-17T06:03:56.852Z,78.1
2022-08-17T06:06:03.311Z,79.5
2022-08-17T06:07:56.739Z,68.2
2022-08-17T06:09:56.841Z,85.4
2022-08-17T06:11:58.723Z,69.6
2022-08-17T06:14:08.999Z,62.8
2022-08-17T06:16:00.689Z,39.7
2022-08-17T06:17:55.776Z,34.6
2022-08-17T06:19:57.409Z,34.9
2022-08-17T06:21:55.062Z,32
2022-08-17T06:24:01.187Z,44.5
2022-08-17T06:26:01.283Z,37.8
2022-08-17T06:28:01.013Z,54.5
2022-08-17T06:30:01.718Z,78.7
2022-08-17T06:31:57.153Z,57.4
2022-08-17T06:34:00.617Z,56.4
2022-08-17T06:36:09.830Z,39.9
2022-08-17T06:38:08.307Z,36.1
2022-08-17T06:40:18.828Z,38
2022-08-17T06:42:09.990Z,28.4
2022-08-17T06:44:12.009Z,40.9
2022-08-17T06:46:07.523Z,35
2022-08-17T06:48:10.788Z,44
2022-08-17T06:50:10.560Z,37.3
2022-08-17T06:52:11.620Z,39.2
2022-08-17T06:54:10.477Z,24.9
2022-08-17T06:56:08.115Z,32.3
2022-08-17T06:58:16.438Z,31.6
2022-08-17T07:00:12.892Z,36
2022-08-17T07:02:14.642Z,41.1
2022-08-17T07:04:12.938Z,33.3
2022-08-17T07:06:14.687Z,20.5
2022-08-17T07:08:17.898Z,33
2022-08-17T07:10:11.477Z,32.6
2022-08-17T07:12:16.580Z,27.8
2022-08-17T07:14:26.700Z,19.5
2022-08-17T07:16:19.287Z,19.1
2022-08-17T07:18:12.816Z,16.2
2022-08-17T07:20:17.619Z,20
2022-08-17T07:22:22.140Z,20.1
2022-08-17T07:24:30.030Z,19.7
2022-08-17T07:26:15.452Z,17.5
2022-08-17T07:28:21.683Z,22.9
2022-08-17T07:30:20.562Z,39.1
2022-08-17T07:32:22.255Z,22.3
2022-08-17T07:34:18.000Z,27.8
2022-08-17T07:36:29.168Z,28.1
2022-08-17T07:38:25.530Z,23.8
2022-08-17T07:40:24.616Z,23
2022-08-17T07:42:21.237Z,23.9
2022-08-17T07:44:21.149Z,18.3
2022-08-17T07:46:23.817Z,19.8
2022-08-17T07:48:25.204Z,14.6
2022-08-17T07:50:25.984Z,13.5
2022-08-17T07:52:51.049Z,17.6
2022-08-17T07:54:31.840Z,15.4
2022-08-17T07:56:34.429Z,16.3
2022-08-17T07:58:25.228Z,21.1
2022-08-17T08:00:32.223Z,18.5
2022-08-17T08:02:37.137Z,27.2
2022-08-17T08:04:59.043Z,16.5
2022-08-17T08:06:27.617Z,20.1
2022-08-17T08:08:32.349Z,17.1
2022-08-17T08:10:32.889Z,20.9
2022-08-17T08:12:33.684Z,19.7
2022-08-17T08:14:31.684Z,14.6
2022-08-17T08:16:30.652Z,39.1
2022-08-17T08:18:38.778Z,19
2022-08-17T08:20:53.386Z,15.7
2022-08-17T08:22:42.550Z,15
2022-08-17T08:24:49.924Z,17
2022-08-17T08:26:40.085Z,16.7
2022-08-17T08:28:41.611Z,18.6
2022-08-17T08:30:43.610Z,27.3
2022-08-17T08:32:51.232Z,19.4
2022-08-17T08:34:58.564Z,19.8
2022-08-17T08:36:56.962Z,21.7
2022-08-17T08:38:45.972Z,20.7
2022-08-17T08:40:51.424Z,13.7
2022-08-17T08:42:48.559Z,22.3
2022-08-17T08:44:59.770Z,13.9
2022-08-17T08:46:48.476Z,14.1
2022-08-17T08:49:12.416Z,16
2022-08-17T08:50:48.069Z,15.6
2022-08-17T08:52:56.243Z,24.8
2022-08-17T08:54:50.762Z,70
2022-08-17T08:57:19.187Z,15.9
2022-08-17T08:58:49.716Z,15.9
2022-08-17T09:00:47.901Z,13.6
2022-08-17T09:03:11.332Z,19.9
2022-08-17T09:05:13.761Z,16.1
2022-08-17T09:06:55.149Z,20.7
2022-08-17T09:08:59.306Z,28.4
2022-08-17T09:10:56.466Z,12.6
2022-08-17T09:12:58.106Z,30.1
2022-08-17T09:14:54.598Z,21
2022-08-17T09:16:59.869Z,12.5
2022-08-17T09:19:00.772Z,35.6
2022-08-17T09:20:55.926Z,19.7
2022-08-17T09:22:55.468Z,35.6
2022-08-17T09:24:57.422Z,23.4
2022-08-17T09:26:57.955Z,16.7
2022-08-17T09:28:57.002Z,16.2
2022-08-17T09:30:57.775Z,16.2
2022-08-17T09:32:57.947Z,22.7
2022-08-17T09:35:11.225Z,19
2022-08-17T09:37:10.052Z,20.6
2022-08-17T09:38:59.692Z,13.8
2022-08-17T09:41:05.559Z,19.1
2022-08-17T09:43:03.439Z,22.9
2022-08-17T09:45:09.031Z,13.6
2022-08-17T09:47:04.810Z,15.5
2022-08-17T09:49:06.870Z,22.4
2022-08-17T09:51:06.762Z,15.1
2022-08-17T09:53:00.711Z,21.7
2022-08-17T09:55:00.813Z,14.5
2022-08-17T09:57:29.190Z,16.9
2022-08-17T09:59:25.543Z,25.5
2022-08-17T10:01:10.116Z,20.3
2022-08-17T10:03:21.423Z,11.4
2022-08-17T10:05:09.726Z,12.9
2022-08-17T10:07:11.433Z,17.5
2022-08-17T10:09:13.532Z,15.3
2022-08-17T10:11:17.188Z,34.3
2022-08-17T10:13:13.564Z,19
2022-08-17T10:15:17.487Z,19.2
2022-08-17T10:17:18.745Z,14.3
2022-08-17T10:19:14.747Z,20.3
2022-08-17T10:21:11.624Z,18.5
2022-08-17T10:23:15.079Z,21.4
2022-08-17T10:25:22.881Z,18.1
2022-08-17T10:27:17.655Z,17.7
2022-08-17T10:29:17.030Z,17.5
2022-08-17T10:31:36.292Z,15.6
2022-08-17T10:33:18.679Z,18.9
2022-08-17T10:35:28.123Z,18.2
2022-08-17T10:37:32.890Z,13.7
2022-08-17T10:39:23.960Z,16.9
2022-08-17T10:41:22.180Z,25.2
2022-08-17T10:43:27.013Z,16.5
2022-08-17T10:45:21.099Z,19
2022-08-17T10:47:18.185Z,19.1
2022-08-17T10:49:27.526Z,16.2
2022-08-17T10:51:34.698Z,28.3
2022-08-17T10:53:47.142Z,43.4
2022-08-17T10:55:18.900Z,40.6
2022-08-17T10:57:36.003Z,45.5
2022-08-17T10:59:48.806Z,20.9
2022-08-17T11:01:38.623Z,20.7
2022-08-17T11:03:22.893Z,18.6
2022-08-17T11:05:42.911Z,15.2
2022-08-17T11:07:36.726Z,9.6
2022-08-17T11:09:33.492Z,18.9
2022-08-17T11:11:44.211Z,16.6
2022-08-17T11:13:35.290Z,14.3
2022-08-17T11:15:41.375Z,22.5
2022-08-17T11:17:42.181Z,16.6
2022-08-17T11:19:52.293Z,12.6
2022-08-17T11:21:42.594Z,7.7
2022-08-17T11:23:44.693Z,11.9
2022-08-17T11:25:35.945Z,9.6
2022-08-17T11:27:33.271Z,12.8
2022-08-17T11:29:49.390Z,14.6
2022-08-17T11:31:38.295Z,16.2
2022-08-17T11:33:58.669Z,16.5
2022-08-17T11:35:38.123Z,11.3
2022-08-17T11:37:40.810Z,9.9
2022-08-17T11:39:49.270Z,14.7
2022-08-17T11:41:43.179Z,15
2022-08-17T11:43:57.891Z,12.6
2022-08-17T11:45:50.880Z,17.5
2022-08-17T11:47:40.225Z,14.6
2022-08-17T11:49:52.212Z,16.3
2022-08-17T11:51:54.320Z,18.3
2022-08-17T11:54:21.515Z,23.6
2022-08-17T11:56:02.001Z,28.1
2022-08-17T11:57:54.181Z,26.5
2022-08-17T11:59:53.277Z,19.6
2022-08-17T12:01:53.349Z,17.1
2022-08-17T12:03:55.360Z,17.1
2022-08-17T12:05:38.811Z,13.2
2022-08-17T12:07:44.381Z,14.4
2022-08-17T12:09:44.126Z,13.9
2022-08-17T12:12:11.067Z,25
2022-08-17T12:13:45.826Z,13.6
2022-08-17T12:15:44.661Z,14.4
2022-08-17T12:17:49.964Z,16
2022-08-17T12:19:42.735Z,13.1
2022-08-17T12:21:50.965Z,16.5
2022-08-17T12:23:54.112Z,17
2022-08-17T12:25:50.628Z,16
2022-08-17T12:28:05.195Z,11.7
2022-08-17T12:29:45.669Z,15.1
2022-08-17T12:31:48.280Z,14.9
2022-08-17T12:33:47.943Z,13.9
2022-08-17T12:35:47.242Z,13.7
2022-08-17T12:37:49.545Z,11.7
2022-08-17T12:39:52.706Z,10.8
2022-08-17T12:41:50.952Z,10.8
2022-08-17T12:43:56.400Z,21.7
2022-08-17T12:45:55.895Z,16.6
2022-08-17T12:48:00.299Z,17.3
2022-08-17T12:49:52.416Z,19.2
2022-08-17T12:51:58.926Z,14.6
2022-08-17T12:53:54.944Z,11.9
2022-08-17T12:55:54.115Z,22.5
2022-08-17T12:57:55.188Z,20.2
2022-08-17T12:59:57.533Z,18.6
2022-08-17T13:01:54.435Z,21
2022-08-17T13:03:55.903Z,16.7
2022-08-17T13:05:58.292Z,10.9
2022-08-17T13:07:59.007Z,12.4
2022-08-17T13:09:56.606Z,17.6
2022-08-17T13:11:58.468Z,17
2022-08-17T13:14:09.134Z,17.5
2022-08-17T13:16:01.126Z,21.6
2022-08-17T13:18:03.969Z,15.2
2022-08-17T13:19:59.774Z,7.5
2022-08-17T13:22:01.305Z,19.1
2022-08-17T13:24:02.717Z,14.7
2022-08-17T13:26:05.423Z,9.4
2022-08-17T13:28:01.706Z,14.2
2022-08-17T13:30:09.805Z,7.7
2022-08-17T13:32:16.632Z,18.3
2022-08-17T13:34:19.382Z,14.6
2022-08-17T13:36:07.039Z,11.8
2022-08-17T13:38:06.897Z,13.4
2022-08-17T13:40:34.471Z,18.4
2022-08-17T13:42:28.958Z,18.7
2022-08-17T13:44:35.670Z,13.1
2022-08-17T13:46:09.756Z,12.1
2022-08-17T13:48:11.957Z,14
2022-08-17T13:50:19.496Z,14.3
2022-08-17T13:52:28.534Z,12.4
2022-08-17T13:54:23.439Z,17.3
2022-08-17T13:56:37.720Z,10.5
2022-08-17T13:58:10.181Z,14
2022-08-17T14:00:17.515Z,16.7
2022-08-17T14:02:12.575Z,15.2
2022-08-17T14:04:13.792Z,14.7
2022-08-17T14:06:12.374Z,17.8
2022-08-17T14:08:14.843Z,16
2022-08-17T14:10:15.951Z,12.5
2022-08-17T14:12:17.494Z,20
2022-08-17T14:14:16.079Z,23
2022-08-17T14:16:15.293Z,22.3
2022-08-17T14:18:15.824Z,26.7
2022-08-17T14:20:20.602Z,27.2
2022-08-17T14:22:20.322Z,14.6
2022-08-17T14:24:22.943Z,14
2022-08-17T14:26:17.998Z,12.5
2022-08-17T14:28:18.627Z,14.1
2022-08-17T14:30:21.168Z,10.6
2022-08-17T14:32:22.066Z,16.9
2022-08-17T14:34:20.876Z,15.7
2022-08-17T14:36:20.957Z,26.1
2022-08-17T14:38:21.390Z,21.2
2022-08-17T14:40:23.632Z,17.9
2022-08-17T14:42:23.470Z,19
2022-08-17T14:44:23.286Z,15
2022-08-17T14:46:23.595Z,20.7
2022-08-17T14:48:24.385Z,17.6
2022-08-17T14:50:24.725Z,14.3
2022-08-17T14:52:25.267Z,14.4
2022-08-17T14:54:33.189Z,15.8
2022-08-17T14:56:26.626Z,12.4
2022-08-17T14:58:26.939Z,14.4
2022-08-17T15:00:27.441Z,13.1
2022-08-17T15:02:30.074Z,13.6
2022-08-17T15:04:28.620Z,19.7
2022-08-17T15:06:29.142Z,21.3
2022-08-17T15:08:30.250Z,17.2
2022-08-17T15:10:31.083Z,18.8
2022-08-17T15:12:34.616Z,10.9
2022-08-17T15:14:31.330Z,21.2
2022-08-17T15:16:31.901Z,10.2
2022-08-17T15:18:32.321Z,19.2
2022-08-17T15:20:32.860Z,20.9
2022-08-17T15:22:33.368Z,21.5
2022-08-17T15:24:33.992Z,24.5
2022-08-17T15:26:34.704Z,22.1
2022-08-17T15:28:35.173Z,17.6
2022-08-17T15:30:35.565Z,17.4
2022-08-17T15:32:39.306Z,22.1
2022-08-17T15:34:36.663Z,20.5
2022-08-17T15:36:37.243Z,16.4
2022-08-17T15:38:37.721Z,15.3
2022-08-17T15:40:40.697Z,14.2
2022-08-17T15:42:38.809Z,12.5
2022-08-17T15:44:40.030Z,21.9
2022-08-17T15:46:39.846Z,20.1
2022-08-17T15:48:42.723Z,17.4
2022-08-17T15:50:41.681Z,16.6
2022-08-17T15:52:41.496Z,16.1
2022-08-17T15:54:42.198Z,22.2
2022-08-17T15:56:42.575Z,20.4
2022-08-17T15:58:45.106Z,18.6
2022-08-17T16:00:53.095Z,16
2022-08-17T16:03:47.108Z,13.6
2022-08-17T16:04:44.750Z,19
2022-08-17T16:06:45.177Z,20.6
2022-08-17T16:08:45.812Z,24.2
2022-08-17T16:10:46.396Z,32.6
2022-08-17T16:12:48.602Z,24.4
2022-08-17T16:14:49.013Z,15.5
2022-08-17T16:16:47.785Z,11.3
2022-08-17T16:18:48.301Z,13.4
2022-08-17T16:20:49.137Z,9.8
2022-08-17T16:22:50.318Z,13.2
2022-08-17T16:24:57.087Z,9.3
2022-08-17T16:26:50.606Z,17.4
2022-08-17T16:28:51.596Z,11.1
2022-08-17T16:30:51.461Z,11.3
2022-08-17T16:32:54.955Z,16.4
2022-08-17T16:34:52.682Z,14.3
2022-08-17T16:36:56.043Z,19
2022-08-17T16:38:53.422Z,12.6
2022-08-17T16:40:53.948Z,12.3
2022-08-17T16:42:55.213Z,12.4
2022-08-17T16:45:03.524Z,19.4
2022-08-17T16:46:55.960Z,11.8
2022-08-17T16:48:56.290Z,15.1
2022-08-17T16:51:03.519Z,17.8
2022-08-17T16:53:04.241Z,15.4
2022-08-17T16:54:59.834Z,21.7
2022-08-17T16:56:58.049Z,18.7
2022-08-17T16:58:58.481Z,19.4
2022-08-17T17:00:59.066Z,16.2
2022-08-17T17:03:07.667Z,16
2022-08-17T17:05:06.616Z,11.9
2022-08-17T17:07:11.962Z,27
2022-08-17T17:09:05.189Z,17.7
2022-08-17T17:11:11.112Z,16.2
2022-08-17T17:13:04.704Z,12.4
2022-08-17T17:15:02.768Z,18.5
2022-08-17T17:17:05.710Z,16.8
2022-08-17T17:19:11.172Z,13.9
2022-08-17T17:21:08.123Z,19.2
2022-08-17T17:23:08.676Z,15
2022-08-17T17:25:11.578Z,18.7
2022-08-17T17:27:19.266Z,13.6
2022-08-17T17:29:18.699Z,21.5
2022-08-17T17:31:12.270Z,28
2022-08-17T17:33:13.733Z,19.7
2022-08-17T17:35:20.846Z,13.5
2022-08-17T17:37:14.611Z,14.8
2022-08-17T17:39:13.096Z,16.1
2022-08-17T17:41:16.329Z,12.1
2022-08-17T17:43:36.878Z,22.2
2022-08-17T17:45:16.358Z,14.7
2022-08-17T17:47:11.945Z,16.4
2022-08-17T17:49:11.097Z,12.5
2022-08-17T17:52:06.548Z,13.9
2022-08-17T17:53:18.253Z,17.1
2022-08-17T17:55:22.850Z,12.7
2022-08-17T17:57:21.687Z,16.6
2022-08-17T17:59:23.554Z,12
2022-08-17T18:01:27.802Z,13.9
2022-08-17T18:03:28.791Z,15.9
2022-08-17T18:05:26.889Z,14.6
2022-08-17T18:07:27.744Z,16
2022-08-17T18:09:28.350Z,17.6
2022-08-17T18:11:33.085Z,14.5
2022-08-17T18:13:26.665Z,16.9
2022-08-17T18:15:24.389Z,16
2022-08-17T18:17:17.457Z,13.5
2022-08-17T18:19:18.768Z,10.5
2022-08-17T18:21:21.197Z,11.8
2022-08-17T18:23:19.974Z,11.6
2022-08-17T18:25:38.127Z,14.1
2022-08-17T18:27:23.587Z,11.9
2022-08-17T18:29:30.832Z,12.7
2022-08-17T18:31:21.335Z,11.3
2022-08-17T18:33:23.568Z,15.1
2022-08-17T18:35:28.066Z,11.7
2022-08-17T18:37:32.610Z,13.2
2022-08-17T18:39:26.811Z,14.3
2022-08-17T18:41:24.596Z,9.6
2022-08-17T18:43:26.831Z,15.9
2022-08-17T18:45:32.023Z,9.7
2022-08-17T18:47:25.878Z,8.6
2022-08-17T18:49:27.336Z,9.7
2022-08-17T18:51:41.042Z,11.5
2022-08-17T18:53:33.474Z,12.5
2022-08-17T18:55:27.191Z,11.4
2022-08-17T18:57:30.934Z,12.9
2022-08-17T18:59:33.555Z,10.1
2022-08-17T19:01:42.053Z,12.3
2022-08-17T19:03:27.306Z,13.1
2022-08-17T19:05:33.997Z,11.9
2022-08-17T19:07:31.352Z,14.3
2022-08-17T19:09:33.268Z,12.9
2022-08-17T19:11:31.946Z,9.3
2022-08-17T19:13:33.338Z,11
2022-08-17T19:15:35.848Z,10.7
2022-08-17T19:17:38.981Z,8.2
2022-08-17T19:19:36.429Z,14.9
2022-08-17T19:21:37.172Z,11.2
2022-08-17T19:23:39.367Z,12
2022-08-17T19:25:37.617Z,16.7
2022-08-17T19:27:41.823Z,8.5
2022-08-17T19:29:41.463Z,8.4
2022-08-17T19:31:34.107Z,5.6
2022-08-17T19:33:33.952Z,15.7
2022-08-17T19:35:45.111Z,9.7
2022-08-17T19:37:41.491Z,14.8
2022-08-17T19:39:42.849Z,15.5
2022-08-17T19:41:43.159Z,11.7
2022-08-17T19:43:56.521Z,10.3
2022-08-17T19:45:43.075Z,12.4
2022-08-17T19:48:04.987Z,10.3
2022-08-17T19:49:48.819Z,11.2
2022-08-17T19:51:46.172Z,8.2
2022-08-17T19:54:05.016Z,10.5
2022-08-17T19:55:50.092Z,13.6
2022-08-17T19:57:46.589Z,13.4
2022-08-17T19:59:49.335Z,10.1
2022-08-17T20:01:46.589Z,11.3
2022-08-17T20:03:49.868Z,10.5
2022-08-17T20:06:09.212Z,11.9
2022-08-17T20:07:49.300Z,16.1
2022-08-17T20:09:46.429Z,13.8
2022-08-17T20:11:46.854Z,9.2
2022-08-17T20:13:46.501Z,10
2022-08-17T20:15:42.528Z,10
2022-08-17T20:17:46.095Z,9
2022-08-17T20:19:49.933Z,13
2022-08-17T20:21:50.974Z,10.7
2022-08-17T20:23:51.550Z,8.6
2022-08-17T20:25:46.845Z,12.4
2022-08-17T20:27:52.884Z,11.5
2022-08-17T20:30:01.239Z,11.3
2022-08-17T20:31:49.764Z,8.8
2022-08-17T20:33:46.188Z,15.1
2022-08-17T20:36:03.069Z,13.4
2022-08-17T20:37:54.625Z,10.8
2022-08-17T20:40:18.739Z,9.5
2022-08-17T20:42:03.962Z,9.2
2022-08-17T20:44:01.035Z,10.4
2022-08-17T20:46:02.311Z,10.1
2022-08-17T20:48:18.482Z,6.4
2022-08-17T20:49:53.856Z,10.8
2022-08-17T20:52:01.613Z,9.2
2022-08-17T20:54:16.868Z,6.8
2022-08-17T20:55:53.821Z,11.9
2022-08-17T20:57:51.152Z,12.7
2022-08-17T20:59:55.568Z,8
2022-08-17T21:02:17.689Z,9.1
2022-08-17T21:03:52.437Z,10.8
2022-08-17T21:05:57.359Z,7.1
2022-08-17T21:07:56.891Z,7.1
2022-08-17T21:10:09.169Z,6.5
2022-08-17T21:12:03.937Z,16.5
2022-08-17T21:14:05.908Z,11
2022-08-17T21:15:59.856Z,9
2022-08-17T21:18:04.267Z,7.7
2022-08-17T21:20:11.526Z,10.6
2022-08-17T21:22:13.198Z,8.2
2022-08-17T21:24:13.159Z,7.4
2022-08-17T21:26:11.391Z,9.2
2022-08-17T21:28:04.830Z,10.5
2022-08-17T21:30:22.190Z,11.1
2022-08-17T21:32:18.585Z,10.8
2022-08-17T21:34:27.403Z,9.5
2022-08-17T21:36:20.280Z,7.1
2022-08-17T21:38:02.713Z,11
2022-08-17T21:40:16.128Z,10
2022-08-17T21:41:59.887Z,7.1
2022-08-17T21:44:10.180Z,9.8
2022-08-17T21:46:03.714Z,11
2022-08-17T21:48:16.866Z,9.3
2022-08-17T21:50:16.905Z,8.8
2022-08-17T21:52:01.770Z,14.8
2022-08-17T21:54:11.903Z,13.6
2022-08-17T21:56:02.809Z,12.3
2022-08-17T21:58:13.456Z,11.6
2022-08-17T22:00:06.854Z,10.1
2022-08-17T22:02:07.880Z,12.4
2022-08-17T22:04:17.049Z,8
2022-08-17T22:06:19.298Z,13.8
2022-08-17T22:08:16.464Z,11.5
2022-08-17T22:10:21.738Z,13.3
2022-08-17T22:12:09.117Z,13.5
2022-08-17T22:14:16.013Z,14.2
2022-08-17T22:16:27.999Z,18.2
2022-08-17T22:18:09.131Z,17.7
2022-08-17T22:20:10.697Z,19.8
2022-08-17T22:22:09.775Z,15.6
2022-08-17T22:24:16.642Z,20.7
2022-08-17T22:26:12.803Z,25.7
2022-08-17T22:28:10.520Z,26.6
2022-08-17T22:30:19.092Z,27.2
2022-08-17T22:32:09.734Z,24.1
2022-08-17T22:34:13.572Z,25
2022-08-17T22:36:18.816Z,24.6
2022-08-17T22:38:27.418Z,24.6
2022-08-17T22:40:24.898Z,24.7
2022-08-17T22:42:13.893Z,26.2
2022-08-17T22:44:18.519Z,25
2022-08-17T22:46:12.538Z,30.8
2022-08-17T22:48:17.418Z,26.6
2022-08-17T22:50:21.289Z,30.4
2022-08-17T22:52:29.225Z,26.1
2022-08-17T22:54:17.871Z,28.5
2022-08-17T22:56:17.028Z,30.7
2022-08-17T22:58:17.799Z,33.4
2022-08-17T23:00:31.233Z,27.9
2022-08-17T23:02:22.827Z,27.9
2022-08-17T23:04:32.360Z,28
2022-08-17T23:06:15.824Z,30.9
2022-08-17T23:08:16.393Z,31.8
2022-08-17T23:10:16.631Z,32.1
2022-08-17T23:12:24.025Z,30.8
2022-08-17T23:14:19.450Z,28.3
2022-08-17T23:16:18.706Z,28.9
2022-08-17T23:18:18.066Z,32.7
2022-08-17T23:20:18.742Z,30
2022-08-17T23:22:18.821Z,29.8
2022-08-17T23:24:22.357Z,33
2022-08-17T23:26:21.125Z,33.7
2022-08-17T23:28:19.958Z,32
2022-08-17T23:30:20.490Z,32
2022-08-17T23:32:21.689Z,35.9
2022-08-17T23:34:21.222Z,29.1
2022-08-17T23:36:21.513Z,29.7
2022-08-17T23:38:21.849Z,33.8
2022-08-17T23:40:22.597Z,31.3
2022-08-17T23:42:22.720Z,34.7
2022-08-17T23:44:23.577Z,35.2
2022-08-17T23:46:23.490Z,33.6
2022-08-17T23:48:32.430Z,37.4
2022-08-17T23:50:24.311Z,36.2
2022-08-17T23:52:24.489Z,38.1
2022-08-17T23:54:30.479Z,35.9
2022-08-17T23:56:25.155Z,39.2
2022-08-17T23:58:25.667Z,37
